createdAt,value
2017-01-14T00:00:04.731Z,71639
2017-01-14T00:00:13.403Z,71645
2017-01-14T00:00:22.092Z,71657
2017-01-14T00:00:30.781Z,71665
2017-01-14T00:00:39.466Z,71668
2017-01-14T00:00:48.153Z,71672
2017-01-14T00:00:56.835Z,71671
2017-01-14T00:01:05.487Z,71645
2017-01-14T00:01:14.170Z,71634
2017-01-14T00:01:22.848Z,71644
2017-01-14T00:01:31.516Z,71630
2017-01-14T00:01:40.191Z,71623
2017-01-14T00:01:48.847Z,71652
2017-01-14T00:01:57.498Z,71648
2017-01-14T00:02:06.190Z,71644
2017-01-14T00:02:14.875Z,71649
2017-01-14T00:02:23.561Z,71650
2017-01-14T00:02:32.213Z,71656
2017-01-14T00:02:40.900Z,71651
2017-01-14T00:02:49.587Z,71646
2017-01-14T00:02:58.281Z,71646
2017-01-14T00:03:06.969Z,71649
2017-01-14T00:03:15.637Z,71653
2017-01-14T00:03:24.314Z,71660
2017-01-14T00:03:32.992Z,71652
2017-01-14T00:03:41.658Z,71660
2017-01-14T00:03:50.330Z,71670
2017-01-14T00:03:58.983Z,71674
2017-01-14T00:04:07.644Z,71662
2017-01-14T00:04:16.335Z,71668
2017-01-14T00:04:25.017Z,71683
2017-01-14T00:04:33.706Z,71690
2017-01-14T00:04:42.415Z,71691
2017-01-14T00:04:51.074Z,71655
2017-01-14T00:04:59.751Z,71642
2017-01-14T00:05:08.790Z,71635
2017-01-14T00:05:17.461Z,71635
2017-01-14T00:05:26.148Z,71634
2017-01-14T00:05:34.846Z,71637
2017-01-14T00:05:43.509Z,71617
2017-01-14T00:05:52.192Z,71615
2017-01-14T00:06:00.837Z,71638
2017-01-14T00:06:09.502Z,71662
2017-01-14T00:06:18.155Z,71663
2017-01-14T00:06:26.822Z,71676
2017-01-14T00:06:35.499Z,71656
2017-01-14T00:06:44.168Z,71641
2017-01-14T00:06:52.844Z,71633
2017-01-14T00:07:01.521Z,71644
2017-01-14T00:07:10.194Z,71644
2017-01-14T00:07:18.869Z,71620
2017-01-14T00:07:27.541Z,71630
2017-01-14T00:07:36.218Z,71628
2017-01-14T00:07:44.904Z,71622
2017-01-14T00:07:53.579Z,71631
2017-01-14T00:08:02.249Z,71645
2017-01-14T00:08:10.934Z,71635
2017-01-14T00:08:19.603Z,71628
2017-01-14T00:08:28.286Z,71633
2017-01-14T00:08:36.968Z,71639
2017-01-14T00:08:45.628Z,71624
2017-01-14T00:08:54.329Z,71617
2017-01-14T00:09:03.025Z,71624
2017-01-14T00:09:11.701Z,71621
2017-01-14T00:09:20.364Z,71617
2017-01-14T00:09:29.039Z,71612
2017-01-14T00:09:37.722Z,71605
2017-01-14T00:09:46.390Z,71603
2017-01-14T00:09:55.053Z,71597
2017-01-14T00:10:03.713Z,71605
2017-01-14T00:10:12.397Z,71607
2017-01-14T00:10:21.061Z,71613
2017-01-14T00:10:29.714Z,71615
2017-01-14T00:10:38.380Z,71618
2017-01-14T00:10:47.036Z,71617
2017-01-14T00:10:55.718Z,71615
2017-01-14T00:11:04.362Z,71615
2017-01-14T00:11:13.032Z,71606
2017-01-14T00:11:21.707Z,71600
2017-01-14T00:11:30.380Z,71605
2017-01-14T00:11:39.024Z,71602
2017-01-14T00:11:47.697Z,71601
2017-01-14T00:11:56.380Z,71601
2017-01-14T00:12:05.050Z,71601
2017-01-14T00:12:13.728Z,71590
2017-01-14T00:12:22.412Z,71602
2017-01-14T00:12:31.107Z,71604
2017-01-14T00:12:39.771Z,71610
2017-01-14T00:12:48.435Z,71623
2017-01-14T00:12:57.102Z,71617
2017-01-14T00:13:05.752Z,71624
2017-01-14T00:13:14.406Z,71620
2017-01-14T00:13:23.068Z,71620
2017-01-14T00:13:31.745Z,71624
2017-01-14T00:13:40.430Z,71638
2017-01-14T00:13:49.095Z,71633
2017-01-14T00:13:57.817Z,71644
2017-01-14T00:14:06.484Z,71649
2017-01-14T00:14:15.177Z,71658
2017-01-14T00:14:23.848Z,71655
2017-01-14T00:14:32.882Z,71666
2017-01-14T00:14:41.564Z,71664
2017-01-14T00:14:50.235Z,71665
2017-01-14T00:14:58.914Z,71656
2017-01-14T00:15:07.584Z,71651
2017-01-14T00:15:16.249Z,71649
2017-01-14T00:15:24.893Z,71651
2017-01-14T00:15:33.568Z,71634
2017-01-14T00:15:42.241Z,71655
2017-01-14T00:15:50.905Z,71674
2017-01-14T00:15:59.561Z,71668
2017-01-14T00:16:08.241Z,71654
2017-01-14T00:16:16.924Z,71649
2017-01-14T00:16:25.644Z,71642
2017-01-14T00:16:34.322Z,71655
2017-01-14T00:16:42.995Z,71633
2017-01-14T00:16:51.654Z,71622
2017-01-14T00:17:00.319Z,71622
2017-01-14T00:17:09.001Z,71630
2017-01-14T00:17:17.711Z,71634
2017-01-14T00:17:26.386Z,71634
2017-01-14T00:17:35.058Z,71640
2017-01-14T00:17:43.719Z,71642
2017-01-14T00:17:52.375Z,71640
2017-01-14T00:18:01.045Z,71647
2017-01-14T00:18:09.719Z,71648
2017-01-14T00:18:18.386Z,71637
2017-01-14T00:18:27.076Z,71637
2017-01-14T00:18:35.762Z,71637
2017-01-14T00:18:44.413Z,71655
2017-01-14T00:18:53.068Z,71644
2017-01-14T00:19:01.752Z,71628
2017-01-14T00:19:10.434Z,71616
2017-01-14T00:19:19.117Z,71603
2017-01-14T00:19:27.771Z,71604
2017-01-14T00:19:36.428Z,71620
2017-01-14T00:19:45.128Z,71606
2017-01-14T00:19:53.807Z,71597
2017-01-14T00:20:02.476Z,71597
2017-01-14T00:20:11.148Z,71613
2017-01-14T00:20:19.811Z,71626
2017-01-14T00:20:28.471Z,71625
2017-01-14T00:20:37.152Z,71627
2017-01-14T00:20:45.830Z,71629
2017-01-14T00:20:54.508Z,71626
2017-01-14T00:21:03.180Z,71621
2017-01-14T00:21:11.871Z,71628
2017-01-14T00:21:20.527Z,71630
2017-01-14T00:21:29.204Z,71635
2017-01-14T00:21:37.874Z,71632
2017-01-14T00:21:46.551Z,71628
2017-01-14T00:21:55.252Z,71619
2017-01-14T00:22:03.921Z,71614
2017-01-14T00:22:12.600Z,71609
2017-01-14T00:22:21.632Z,71612
2017-01-14T00:22:30.310Z,71605
2017-01-14T00:22:38.995Z,71623
2017-01-14T00:22:47.668Z,71629
2017-01-14T00:22:56.343Z,71625
2017-01-14T00:23:05.011Z,71614
2017-01-14T00:23:13.677Z,71621
2017-01-14T00:23:22.362Z,71626
2017-01-14T00:23:31.032Z,71612
2017-01-14T00:23:39.676Z,71609
2017-01-14T00:23:48.347Z,71610
2017-01-14T00:23:56.999Z,71617
2017-01-14T00:24:05.665Z,71624
2017-01-14T00:24:14.327Z,71626
2017-01-14T00:24:23.030Z,71629
2017-01-14T00:24:31.698Z,71629
2017-01-14T00:24:40.363Z,71620
2017-01-14T00:24:49.039Z,71619
2017-01-14T00:24:57.698Z,71613
2017-01-14T00:25:06.382Z,71613
2017-01-14T00:25:15.059Z,71617
2017-01-14T00:25:23.724Z,71623
2017-01-14T00:25:32.403Z,71621
2017-01-14T00:25:41.083Z,71630
2017-01-14T00:25:49.749Z,71631
2017-01-14T00:25:58.409Z,71628
2017-01-14T00:26:07.079Z,71615
2017-01-14T00:26:15.757Z,71610
2017-01-14T00:26:24.427Z,71614
2017-01-14T00:26:33.089Z,71606
2017-01-14T00:26:41.744Z,71594
2017-01-14T00:26:50.399Z,71602
2017-01-14T00:26:59.077Z,71625
2017-01-14T00:27:07.764Z,71617
2017-01-14T00:27:16.429Z,71625
2017-01-14T00:27:25.073Z,71631
2017-01-14T00:27:33.743Z,71638
2017-01-14T00:27:42.420Z,71638
2017-01-14T00:27:51.094Z,71643
2017-01-14T00:27:59.779Z,71647
2017-01-14T00:28:08.466Z,71639
2017-01-14T00:28:17.140Z,71632
2017-01-14T00:28:25.813Z,71639
2017-01-14T00:28:34.468Z,71642
2017-01-14T00:28:43.157Z,71646
2017-01-14T00:28:51.825Z,71653
2017-01-14T00:29:00.493Z,71660
2017-01-14T00:29:09.137Z,71663
2017-01-14T00:29:17.803Z,71662
2017-01-14T00:29:26.467Z,71653
2017-01-14T00:29:35.135Z,71652
2017-01-14T00:29:43.787Z,71635
2017-01-14T00:29:52.466Z,71637
2017-01-14T00:30:01.168Z,71646
2017-01-14T00:30:09.859Z,71640
2017-01-14T00:30:18.523Z,71636
2017-01-14T00:30:27.208Z,71622
2017-01-14T00:30:35.863Z,71632
2017-01-14T00:30:44.551Z,71635
2017-01-14T00:30:53.229Z,71629
2017-01-14T00:31:01.895Z,71640
2017-01-14T00:31:10.569Z,71641
2017-01-14T00:31:19.224Z,71650
2017-01-14T00:31:27.904Z,71649
2017-01-14T00:31:36.590Z,71650
2017-01-14T00:31:45.271Z,71653
2017-01-14T00:31:53.927Z,71640
2017-01-14T00:32:02.604Z,71647
2017-01-14T00:32:11.282Z,71657
2017-01-14T00:32:19.951Z,71665
2017-01-14T00:32:28.619Z,71652
2017-01-14T00:32:37.275Z,71643
2017-01-14T00:32:45.971Z,71645
2017-01-14T00:32:54.643Z,71655
2017-01-14T00:33:03.308Z,71657
2017-01-14T00:33:11.962Z,71652
2017-01-14T00:33:20.655Z,71648
2017-01-14T00:33:29.306Z,71645
2017-01-14T00:33:37.978Z,71643
2017-01-14T00:33:46.639Z,71652
2017-01-14T00:33:55.302Z,71659
2017-01-14T00:34:03.979Z,71652
2017-01-14T00:34:12.639Z,71653
2017-01-14T00:34:21.320Z,71646
2017-01-14T00:34:30.000Z,71662
2017-01-14T00:34:38.704Z,71671
2017-01-14T00:34:47.397Z,71671
2017-01-14T00:34:56.099Z,71656
2017-01-14T00:35:05.129Z,71651
2017-01-14T00:35:13.810Z,71643
2017-01-14T00:35:22.482Z,71664
2017-01-14T00:35:31.164Z,71653
2017-01-14T00:35:39.830Z,71647
2017-01-14T00:35:48.501Z,71656
2017-01-14T00:35:57.164Z,71652
2017-01-14T00:36:05.816Z,71654
2017-01-14T00:36:14.493Z,71654
2017-01-14T00:36:23.162Z,71653
2017-01-14T00:36:31.826Z,71654
2017-01-14T00:36:40.522Z,71655
2017-01-14T00:36:49.171Z,71656
2017-01-14T00:36:57.831Z,71654
2017-01-14T00:37:06.491Z,71643
2017-01-14T00:37:15.163Z,71652
2017-01-14T00:37:23.831Z,71647
2017-01-14T00:37:32.472Z,71645
2017-01-14T00:37:41.138Z,71651
2017-01-14T00:37:49.839Z,71660
2017-01-14T00:37:58.507Z,71662
2017-01-14T00:38:07.177Z,71654
2017-01-14T00:38:15.863Z,71669
2017-01-14T00:38:24.530Z,71674
2017-01-14T00:38:33.230Z,71666
2017-01-14T00:38:41.921Z,71665
2017-01-14T00:38:50.609Z,71644
2017-01-14T00:38:59.287Z,71651
2017-01-14T00:39:07.961Z,71664
2017-01-14T00:39:16.633Z,71673
2017-01-14T00:39:25.307Z,71678
2017-01-14T00:39:33.973Z,71660
2017-01-14T00:39:42.631Z,71677
2017-01-14T00:39:51.288Z,71686
2017-01-14T00:39:59.944Z,71671
2017-01-14T00:40:08.607Z,71655
2017-01-14T00:40:17.288Z,71678
2017-01-14T00:40:25.960Z,71673
2017-01-14T00:40:34.657Z,71665
2017-01-14T00:40:43.346Z,71664
2017-01-14T00:40:52.016Z,71658
2017-01-14T00:41:00.670Z,71649
2017-01-14T00:41:09.349Z,71649
2017-01-14T00:41:18.007Z,71656
2017-01-14T00:41:26.663Z,71656
2017-01-14T00:41:35.328Z,71649
2017-01-14T00:41:43.998Z,71640
2017-01-14T00:41:52.677Z,71630
2017-01-14T00:42:01.335Z,71636
2017-01-14T00:42:10.029Z,71653
2017-01-14T00:42:18.691Z,71673
2017-01-14T00:42:27.348Z,71678
2017-01-14T00:42:36.023Z,71675
2017-01-14T00:42:44.684Z,71663
2017-01-14T00:42:53.333Z,71652
2017-01-14T00:43:02.018Z,71652
2017-01-14T00:43:10.695Z,71649
2017-01-14T00:43:19.374Z,71638
2017-01-14T00:43:28.070Z,71651
2017-01-14T00:43:36.751Z,71659
2017-01-14T00:43:45.412Z,71672
2017-01-14T00:43:54.087Z,71666
2017-01-14T00:44:02.775Z,71652
2017-01-14T00:44:11.438Z,71642
2017-01-14T00:44:20.129Z,71639
2017-01-14T00:44:28.779Z,71640
2017-01-14T00:44:37.434Z,71650
2017-01-14T00:44:46.105Z,71662
2017-01-14T00:44:54.771Z,71664
2017-01-14T00:45:03.443Z,71663
2017-01-14T00:45:12.128Z,71655
2017-01-14T00:45:20.800Z,71642
2017-01-14T00:45:29.478Z,71641
2017-01-14T00:45:38.152Z,71642
2017-01-14T00:45:46.822Z,71651
2017-01-14T00:45:55.487Z,71658
2017-01-14T00:46:04.151Z,71653
2017-01-14T00:46:12.821Z,71653
2017-01-14T00:46:21.502Z,71654
2017-01-14T00:46:30.171Z,71661
2017-01-14T00:46:38.848Z,71674
2017-01-14T00:46:47.517Z,71660
2017-01-14T00:46:56.189Z,71653
2017-01-14T00:47:04.856Z,71658
2017-01-14T00:47:13.521Z,71663
2017-01-14T00:47:22.210Z,71666
2017-01-14T00:47:30.891Z,71668
2017-01-14T00:47:39.558Z,71675
2017-01-14T00:47:48.222Z,71666
2017-01-14T00:47:56.917Z,71668
2017-01-14T00:48:05.601Z,71669
2017-01-14T00:48:14.263Z,71663
2017-01-14T00:48:22.921Z,71651
2017-01-14T00:48:31.598Z,71653
2017-01-14T00:48:40.297Z,71662
2017-01-14T00:48:48.982Z,71659
2017-01-14T00:48:57.652Z,71665
2017-01-14T00:49:06.341Z,71661
2017-01-14T00:49:15.006Z,71661
2017-01-14T00:49:23.674Z,71655
2017-01-14T00:49:32.348Z,71662
2017-01-14T00:49:41.049Z,71667
2017-01-14T00:49:49.724Z,71656
2017-01-14T00:49:58.390Z,71658
2017-01-14T00:50:07.072Z,71662
2017-01-14T00:50:15.748Z,71652
2017-01-14T00:50:24.442Z,71653
2017-01-14T00:50:33.128Z,71649
2017-01-14T00:50:41.796Z,71652
2017-01-14T00:50:50.481Z,71653
2017-01-14T00:50:59.144Z,71654
2017-01-14T00:51:07.805Z,71663
2017-01-14T00:51:16.503Z,71650
2017-01-14T00:51:25.174Z,71637
2017-01-14T00:51:33.857Z,71640
2017-01-14T00:51:42.511Z,71644
2017-01-14T00:51:51.168Z,71647
2017-01-14T00:51:59.832Z,71652
2017-01-14T00:52:08.486Z,71651
2017-01-14T00:52:17.167Z,71649
2017-01-14T00:52:25.864Z,71653
2017-01-14T00:52:34.536Z,71658
2017-01-14T00:52:43.197Z,71660
2017-01-14T00:52:51.876Z,71661
2017-01-14T00:53:00.543Z,71664
2017-01-14T00:53:09.208Z,71664
2017-01-14T00:53:17.862Z,71669
2017-01-14T00:53:26.560Z,71668
2017-01-14T00:53:35.227Z,71662
2017-01-14T00:53:43.916Z,71663
2017-01-14T00:53:52.604Z,71660
2017-01-14T00:54:01.257Z,71662
2017-01-14T00:54:09.953Z,71668
2017-01-14T00:54:18.632Z,71670
2017-01-14T00:54:27.298Z,71675
2017-01-14T00:54:35.970Z,71656
2017-01-14T00:54:44.653Z,71640
2017-01-14T00:54:53.337Z,71631
2017-01-14T00:55:02.016Z,71641
2017-01-14T00:55:10.700Z,71637
2017-01-14T00:55:19.377Z,71633
2017-01-14T00:55:28.062Z,71630
2017-01-14T00:55:36.739Z,71633
2017-01-14T00:55:45.403Z,71625
2017-01-14T00:55:54.082Z,71628
2017-01-14T00:56:02.752Z,71632
2017-01-14T00:56:11.432Z,71633
2017-01-14T00:56:20.108Z,71627
2017-01-14T00:56:28.772Z,71613
2017-01-14T00:56:37.438Z,71609
2017-01-14T00:56:46.121Z,71605
2017-01-14T00:56:54.823Z,71616
2017-01-14T00:57:03.482Z,71610
2017-01-14T00:57:12.139Z,71608
2017-01-14T00:57:20.809Z,71606
2017-01-14T00:57:29.469Z,71607
2017-01-14T00:57:38.139Z,71608
2017-01-14T00:57:46.792Z,71622
2017-01-14T00:57:55.434Z,71623
2017-01-14T00:58:04.099Z,71619
2017-01-14T00:58:12.758Z,71616
2017-01-14T00:58:21.420Z,71617
2017-01-14T00:58:30.088Z,71611
2017-01-14T00:58:38.746Z,71619
2017-01-14T00:58:47.417Z,71631
2017-01-14T00:58:56.099Z,71623
2017-01-14T00:59:04.778Z,71614
2017-01-14T00:59:13.442Z,71617
2017-01-14T00:59:22.101Z,71612
2017-01-14T00:59:30.767Z,71623
2017-01-14T00:59:39.420Z,71632
2017-01-14T00:59:48.069Z,71648
2017-01-14T00:59:56.735Z,71648
2017-01-14T01:00:05.390Z,71645
2017-01-14T01:00:14.091Z,71644
2017-01-14T01:00:22.764Z,71651
2017-01-14T01:00:31.429Z,71647
2017-01-14T01:00:40.085Z,71644
2017-01-14T01:00:48.744Z,71631
2017-01-14T01:00:57.431Z,71617
2017-01-14T01:01:06.117Z,71613
2017-01-14T01:01:14.802Z,71617
2017-01-14T01:01:23.490Z,71628
2017-01-14T01:01:32.174Z,71635
2017-01-14T01:01:40.846Z,71636
2017-01-14T01:01:49.511Z,71634
2017-01-14T01:01:58.199Z,71642
2017-01-14T01:02:06.905Z,71649
2017-01-14T01:02:15.580Z,71662
2017-01-14T01:02:24.232Z,71664
2017-01-14T01:02:32.906Z,71654
2017-01-14T01:02:41.567Z,71627
2017-01-14T01:02:50.243Z,71601
2017-01-14T01:02:58.917Z,71622
2017-01-14T01:03:07.597Z,71634
2017-01-14T01:03:16.275Z,71653
2017-01-14T01:03:24.936Z,71657
2017-01-14T01:03:33.615Z,71643
2017-01-14T01:03:42.303Z,71621
2017-01-14T01:03:50.965Z,71573
2017-01-14T01:03:59.638Z,71594
2017-01-14T01:04:08.317Z,71614
2017-01-14T01:04:17.014Z,71633
2017-01-14T01:04:25.682Z,71645
2017-01-14T01:04:34.356Z,71647
2017-01-14T01:04:43.033Z,71647
2017-01-14T01:04:51.727Z,71639
2017-01-14T01:05:00.395Z,71638
2017-01-14T01:05:09.071Z,71634
2017-01-14T01:05:17.745Z,71636
2017-01-14T01:05:26.446Z,71646
2017-01-14T01:05:35.122Z,71651
2017-01-14T01:05:43.829Z,71650
2017-01-14T01:05:52.503Z,71650
2017-01-14T01:06:01.194Z,71637
2017-01-14T01:06:09.873Z,71622
2017-01-14T01:06:18.583Z,71616
2017-01-14T01:06:27.253Z,71617
2017-01-14T01:06:35.902Z,71625
2017-01-14T01:06:44.569Z,71635
2017-01-14T01:06:53.220Z,71644
2017-01-14T01:07:01.911Z,71645
2017-01-14T01:07:10.558Z,71649
2017-01-14T01:07:19.223Z,71649
2017-01-14T01:07:27.914Z,71651
2017-01-14T01:07:36.598Z,71652
2017-01-14T01:07:45.287Z,71648
2017-01-14T01:07:53.949Z,71645
2017-01-14T01:08:02.602Z,71644
2017-01-14T01:08:11.283Z,71647
2017-01-14T01:08:19.965Z,71654
2017-01-14T01:08:28.634Z,71650
2017-01-14T01:08:37.310Z,71651
2017-01-14T01:08:45.982Z,71642
2017-01-14T01:08:54.673Z,71634
2017-01-14T01:09:03.348Z,71630
2017-01-14T01:09:12.031Z,71631
2017-01-14T01:09:20.707Z,71634
2017-01-14T01:09:29.378Z,71632
2017-01-14T01:09:38.030Z,71636
2017-01-14T01:09:46.688Z,71644
2017-01-14T01:09:55.363Z,71652
2017-01-14T01:10:04.028Z,71654
2017-01-14T01:10:12.702Z,71648
2017-01-14T01:10:21.357Z,71644
2017-01-14T01:10:30.039Z,71644
2017-01-14T01:10:38.730Z,71648
2017-01-14T01:10:47.390Z,71645
2017-01-14T01:10:56.049Z,71645
2017-01-14T01:11:05.075Z,71636
2017-01-14T01:11:13.732Z,71637
2017-01-14T01:11:22.402Z,71640
2017-01-14T01:11:31.077Z,71641
2017-01-14T01:11:39.736Z,71644
2017-01-14T01:11:48.409Z,71644
2017-01-14T01:11:57.094Z,71640
2017-01-14T01:12:05.743Z,71639
2017-01-14T01:12:14.427Z,71642
2017-01-14T01:12:23.087Z,71649
2017-01-14T01:12:31.768Z,71649
2017-01-14T01:12:40.449Z,71648
2017-01-14T01:12:49.108Z,71650
2017-01-14T01:12:57.802Z,71653
2017-01-14T01:13:06.455Z,71655
2017-01-14T01:13:15.124Z,71648
2017-01-14T01:13:23.799Z,71643
2017-01-14T01:13:32.465Z,71650
2017-01-14T01:13:41.152Z,71653
2017-01-14T01:13:49.832Z,71649
2017-01-14T01:13:58.492Z,71653
2017-01-14T01:14:07.172Z,71655
2017-01-14T01:14:15.849Z,71653
2017-01-14T01:14:24.514Z,71648
2017-01-14T01:14:33.188Z,71648
2017-01-14T01:14:41.853Z,71642
2017-01-14T01:14:50.539Z,71639
2017-01-14T01:14:59.196Z,71632
2017-01-14T01:15:07.854Z,71639
2017-01-14T01:15:16.541Z,71644
2017-01-14T01:15:25.202Z,71642
2017-01-14T01:15:33.885Z,71645
2017-01-14T01:15:42.553Z,71645
2017-01-14T01:15:51.245Z,71642
2017-01-14T01:15:59.917Z,71639
2017-01-14T01:16:08.574Z,71636
2017-01-14T01:16:17.233Z,71636
2017-01-14T01:16:25.891Z,71643
2017-01-14T01:16:34.557Z,71644
2017-01-14T01:16:43.236Z,71634
2017-01-14T01:16:51.898Z,71625
2017-01-14T01:17:00.557Z,71628
2017-01-14T01:17:09.249Z,71631
2017-01-14T01:17:17.914Z,71640
2017-01-14T01:17:26.579Z,71636
2017-01-14T01:17:35.267Z,71641
2017-01-14T01:17:43.940Z,71643
2017-01-14T01:17:52.612Z,71642
2017-01-14T01:18:01.288Z,71640
2017-01-14T01:18:09.960Z,71646
2017-01-14T01:18:18.625Z,71647
2017-01-14T01:18:27.290Z,71641
2017-01-14T01:18:35.959Z,71644
2017-01-14T01:18:44.607Z,71640
2017-01-14T01:18:53.276Z,71640
2017-01-14T01:19:01.951Z,71637
2017-01-14T01:19:10.633Z,71642
2017-01-14T01:19:19.295Z,71641
2017-01-14T01:19:27.975Z,71639
2017-01-14T01:19:36.646Z,71640
2017-01-14T01:19:45.319Z,71644
2017-01-14T01:19:53.999Z,71642
2017-01-14T01:20:02.656Z,71646
2017-01-14T01:20:11.321Z,71651
2017-01-14T01:20:19.979Z,71655
2017-01-14T01:20:28.657Z,71657
2017-01-14T01:20:37.318Z,71652
2017-01-14T01:20:45.989Z,71646
2017-01-14T01:20:54.663Z,71645
2017-01-14T01:21:03.332Z,71644
2017-01-14T01:21:12.000Z,71640
2017-01-14T01:21:20.674Z,71644
2017-01-14T01:21:29.344Z,71638
2017-01-14T01:21:38.002Z,71642
2017-01-14T01:21:46.675Z,71645
2017-01-14T01:21:55.369Z,71645
2017-01-14T01:22:04.043Z,71638
2017-01-14T01:22:12.705Z,71645
2017-01-14T01:22:21.410Z,71658
2017-01-14T01:22:30.084Z,71660
2017-01-14T01:22:38.758Z,71659
2017-01-14T01:22:47.434Z,71661
2017-01-14T01:22:56.098Z,71657
2017-01-14T01:23:04.756Z,71656
2017-01-14T01:23:13.430Z,71657
2017-01-14T01:23:22.091Z,71659
2017-01-14T01:23:30.775Z,71662
2017-01-14T01:23:39.429Z,71659
2017-01-14T01:23:48.096Z,71654
2017-01-14T01:23:56.779Z,71650
2017-01-14T01:24:05.451Z,71658
2017-01-14T01:24:14.137Z,71653
2017-01-14T01:24:22.815Z,71641
2017-01-14T01:24:31.474Z,71636
2017-01-14T01:24:40.150Z,71636
2017-01-14T01:24:48.826Z,71642
2017-01-14T01:24:57.502Z,71651
2017-01-14T01:25:06.167Z,71657
2017-01-14T01:25:14.854Z,71661
2017-01-14T01:25:23.517Z,71659
2017-01-14T01:25:32.164Z,71653
2017-01-14T01:25:40.824Z,71652
2017-01-14T01:25:49.501Z,71646
2017-01-14T01:25:58.179Z,71636
2017-01-14T01:26:06.867Z,71640
2017-01-14T01:26:15.527Z,71635
2017-01-14T01:26:24.205Z,71640
2017-01-14T01:26:32.864Z,71646
2017-01-14T01:26:41.554Z,71646
2017-01-14T01:26:50.241Z,71647
2017-01-14T01:26:58.945Z,71650
2017-01-14T01:27:07.610Z,71655
2017-01-14T01:27:16.273Z,71661
2017-01-14T01:27:24.955Z,71651
2017-01-14T01:27:33.664Z,71641
2017-01-14T01:27:42.326Z,71646
2017-01-14T01:27:50.995Z,71655
2017-01-14T01:27:59.674Z,71651
2017-01-14T01:28:08.325Z,71650
2017-01-14T01:28:17.000Z,71650
2017-01-14T01:28:25.674Z,71649
2017-01-14T01:28:34.332Z,71655
2017-01-14T01:28:42.992Z,71662
2017-01-14T01:28:51.651Z,71661
2017-01-14T01:29:00.316Z,71661
2017-01-14T01:29:08.984Z,71664
2017-01-14T01:29:17.668Z,71668
2017-01-14T01:29:26.321Z,71669
2017-01-14T01:29:34.993Z,71671
2017-01-14T01:29:43.691Z,71678
2017-01-14T01:29:52.383Z,71670
2017-01-14T01:30:01.071Z,71669
2017-01-14T01:30:10.126Z,71665
2017-01-14T01:30:18.800Z,71665
2017-01-14T01:30:27.470Z,71663
2017-01-14T01:30:36.143Z,71661
2017-01-14T01:30:44.815Z,71664
2017-01-14T01:30:53.494Z,71660
2017-01-14T01:31:02.184Z,71659
2017-01-14T01:31:10.843Z,71657
2017-01-14T01:31:19.524Z,71655
2017-01-14T01:31:28.191Z,71658
2017-01-14T01:31:36.865Z,71654
2017-01-14T01:31:45.566Z,71639
2017-01-14T01:31:54.208Z,71639
2017-01-14T01:32:02.872Z,71645
2017-01-14T01:32:11.561Z,71647
2017-01-14T01:32:20.243Z,71644
2017-01-14T01:32:28.946Z,71636
2017-01-14T01:32:37.621Z,71635
2017-01-14T01:32:46.281Z,71645
2017-01-14T01:32:54.974Z,71644
2017-01-14T01:33:03.643Z,71638
2017-01-14T01:33:12.291Z,71640
2017-01-14T01:33:20.982Z,71646
2017-01-14T01:33:29.645Z,71651
2017-01-14T01:33:38.299Z,71643
2017-01-14T01:33:46.968Z,71646
2017-01-14T01:33:55.633Z,71640
2017-01-14T01:34:04.321Z,71643
2017-01-14T01:34:12.996Z,71643
2017-01-14T01:34:21.665Z,71637
2017-01-14T01:34:30.339Z,71649
2017-01-14T01:34:39.013Z,71651
2017-01-14T01:34:47.692Z,71639
2017-01-14T01:34:56.378Z,71627
2017-01-14T01:35:05.048Z,71647
2017-01-14T01:35:13.715Z,71654
2017-01-14T01:35:22.382Z,71648
2017-01-14T01:35:31.053Z,71644
2017-01-14T01:35:39.723Z,71642
2017-01-14T01:35:48.395Z,71633
2017-01-14T01:35:57.071Z,71632
2017-01-14T01:36:05.767Z,71635
2017-01-14T01:36:14.442Z,71632
2017-01-14T01:36:23.134Z,71644
2017-01-14T01:36:31.786Z,71646
2017-01-14T01:36:40.438Z,71657
2017-01-14T01:36:49.107Z,71665
2017-01-14T01:36:57.769Z,71658
2017-01-14T01:37:06.466Z,71667
2017-01-14T01:37:15.143Z,71643
2017-01-14T01:37:23.800Z,71632
2017-01-14T01:37:32.464Z,71621
2017-01-14T01:37:41.116Z,71624
2017-01-14T01:37:49.794Z,71625
2017-01-14T01:37:58.464Z,71619
2017-01-14T01:38:07.146Z,71615
2017-01-14T01:38:15.819Z,71632
2017-01-14T01:38:24.512Z,71646
2017-01-14T01:38:33.176Z,71648
2017-01-14T01:38:41.875Z,71629
2017-01-14T01:38:50.526Z,71622
2017-01-14T01:38:59.199Z,71623
2017-01-14T01:39:07.856Z,71632
2017-01-14T01:39:16.528Z,71633
2017-01-14T01:39:25.197Z,71630
2017-01-14T01:39:33.882Z,71621
2017-01-14T01:39:42.557Z,71617
2017-01-14T01:39:51.215Z,71621
2017-01-14T01:39:59.881Z,71630
2017-01-14T01:40:08.559Z,71635
2017-01-14T01:40:17.261Z,71627
2017-01-14T01:40:25.962Z,71604
2017-01-14T01:40:34.639Z,71606
2017-01-14T01:40:43.292Z,71602
2017-01-14T01:40:51.953Z,71619
2017-01-14T01:41:00.619Z,71624
2017-01-14T01:41:09.303Z,71609
2017-01-14T01:41:17.955Z,71610
2017-01-14T01:41:26.633Z,71598
2017-01-14T01:41:35.298Z,71598
2017-01-14T01:41:43.969Z,71609
2017-01-14T01:41:52.641Z,71624
2017-01-14T01:42:01.316Z,71630
2017-01-14T01:42:09.972Z,71640
2017-01-14T01:42:18.636Z,71648
2017-01-14T01:42:27.319Z,71654
2017-01-14T01:42:35.987Z,71660
2017-01-14T01:42:44.660Z,71652
2017-01-14T01:42:53.330Z,71641
2017-01-14T01:43:02.017Z,71622
2017-01-14T01:43:10.705Z,71608
2017-01-14T01:43:19.389Z,71614
2017-01-14T01:43:28.423Z,71626
2017-01-14T01:43:37.092Z,71627
2017-01-14T01:43:45.758Z,71634
2017-01-14T01:43:54.421Z,71634
2017-01-14T01:44:03.082Z,71616
2017-01-14T01:44:11.742Z,71621
2017-01-14T01:44:20.411Z,71605
2017-01-14T01:44:29.075Z,71622
2017-01-14T01:44:37.742Z,71632
2017-01-14T01:44:46.400Z,71638
2017-01-14T01:44:55.074Z,71646
2017-01-14T01:45:03.759Z,71652
2017-01-14T01:45:12.796Z,71648
2017-01-14T01:45:21.472Z,71646
2017-01-14T01:45:30.137Z,71639
2017-01-14T01:45:38.784Z,71641
2017-01-14T01:45:47.464Z,71652
2017-01-14T01:45:56.138Z,71654
2017-01-14T01:46:04.824Z,71662
2017-01-14T01:46:13.486Z,71651
2017-01-14T01:46:22.521Z,71650
2017-01-14T01:46:31.180Z,71656
2017-01-14T01:46:39.847Z,71664
2017-01-14T01:46:48.497Z,71660
2017-01-14T01:46:57.165Z,71661
2017-01-14T01:47:05.838Z,71657
2017-01-14T01:47:14.516Z,71658
2017-01-14T01:47:23.168Z,71657
2017-01-14T01:47:31.836Z,71634
2017-01-14T01:47:40.498Z,71608
2017-01-14T01:47:49.165Z,71622
2017-01-14T01:47:57.867Z,71633
2017-01-14T01:48:06.542Z,71642
2017-01-14T01:48:15.216Z,71651
2017-01-14T01:48:23.912Z,71662
2017-01-14T01:48:32.571Z,71665
2017-01-14T01:48:41.239Z,71666
2017-01-14T01:48:49.910Z,71669
2017-01-14T01:48:58.584Z,71666
2017-01-14T01:49:07.249Z,71660
2017-01-14T01:49:15.920Z,71640
2017-01-14T01:49:24.580Z,71619
2017-01-14T01:49:33.246Z,71636
2017-01-14T01:49:41.925Z,71642
2017-01-14T01:49:50.605Z,71647
2017-01-14T01:49:59.274Z,71655
2017-01-14T01:50:07.966Z,71656
2017-01-14T01:50:16.684Z,71656
2017-01-14T01:50:25.360Z,71658
2017-01-14T01:50:34.042Z,71651
2017-01-14T01:50:42.715Z,71665
2017-01-14T01:50:51.391Z,71647
2017-01-14T01:51:00.066Z,71651
2017-01-14T01:51:08.743Z,71623
2017-01-14T01:51:17.418Z,71616
2017-01-14T01:51:26.083Z,71635
2017-01-14T01:51:34.735Z,71657
2017-01-14T01:51:43.404Z,71660